GER24M LFPB-EDDF
Flight info
| Callsign | GER24M |
|---|---|
| Flight time | N/A |
| Altitude | 21000 |
| Route | RANUX DCT VALEK/N0420F230 DCT LIPNI UN858 BETEX Z110 KULZO T847 IMCOM IMCOM2C |
| Aircraft | C25C/M-SDE2E3FGHRWXY/LB1 |
Departure
| Time | 2026-04-21 18:44 |
|---|---|
| Airport | Paris-Le Bourget International Airport (LFPB) |
Arrival
| Time | N/A |
|---|---|
| Airport | Frankfurt Main Airport (EDDF) |
| Time | Latitude | Longitude | Altitude | Speed | Heading |
|---|---|---|---|---|---|
| 2026-04-21 18:29 | 48.96058 | 2.44117 | 145 ft | 0 kts | 29° |
| 2026-04-21 18:39 | 48.96065 | 2.44118 | 145 ft | 4 kts | 356° |
| 2026-04-21 18:39 | 48.96089 | 2.44058 | 145 ft | 9 kts | 295° |
| 2026-04-21 18:39 | 48.96128 | 2.43999 | 145 ft | 8 kts | 323° |
| 2026-04-21 18:40 | 48.96123 | 2.43938 | 145 ft | 7 kts | 212° |
| 2026-04-21 18:40 | 48.96073 | 2.43901 | 145 ft | 9 kts | 205° |
| 2026-04-21 18:40 | 48.96029 | 2.43870 | 145 ft | 11 kts | 205° |
| 2026-04-21 18:40 | 48.95920 | 2.43794 | 144 ft | 15 kts | 205° |
| 2026-04-21 18:41 | 48.95819 | 2.43722 | 144 ft | 17 kts | 215° |
| 2026-04-21 18:41 | 48.95826 | 2.43566 | 145 ft | 16 kts | 296° |
| 2026-04-21 18:41 | 48.95877 | 2.43403 | 145 ft | 18 kts | 294° |
| 2026-04-21 18:41 | 48.95934 | 2.43220 | 144 ft | 20 kts | 295° |
| 2026-04-21 18:42 | 48.96005 | 2.43038 | 144 ft | 20 kts | 306° |
| 2026-04-21 18:42 | 48.96091 | 2.42877 | 143 ft | 20 kts | 309° |
| 2026-04-21 18:42 | 48.96176 | 2.42717 | 142 ft | 19 kts | 307° |
| 2026-04-21 18:42 | 48.96260 | 2.42562 | 141 ft | 19 kts | 311° |
| 2026-04-21 18:43 | 48.96354 | 2.42485 | 141 ft | 12 kts | 353° |
| 2026-04-21 18:43 | 48.96411 | 2.42478 | 141 ft | 8 kts | 357° |
| 2026-04-21 18:43 | 48.96478 | 2.42478 | 141 ft | 11 kts | 3° |
| 2026-04-21 18:43 | 48.96523 | 2.42533 | 141 ft | 7 kts | 69° |
| 2026-04-21 18:44 | 48.96555 | 2.42656 | 143 ft | 36 kts | 68° |
| 2026-04-21 18:44 | 48.96750 | 2.43390 | 157 ft | 108 kts | 66° |
| 2026-04-21 18:44 | 48.97033 | 2.44558 | 599 ft | 127 kts | 69° |
| 2026-04-21 18:44 | 48.97354 | 2.45893 | 1198 ft | 143 kts | 69° |
| 2026-04-21 18:45 | 48.97571 | 2.47396 | 1781 ft | 155 kts | 95° |
| 2026-04-21 18:45 | 48.97330 | 2.49045 | 2340 ft | 163 kts | 96° |
| 2026-04-21 18:45 | 48.97503 | 2.50797 | 2802 ft | 175 kts | 84° |
| 2026-04-21 18:45 | 48.97186 | 2.52630 | 3333 ft | 183 kts | 104° |
| 2026-04-21 18:46 | 48.96948 | 2.54541 | 3842 ft | 187 kts | 95° |
| 2026-04-21 18:46 | 48.96782 | 2.56577 | 4485 ft | 200 kts | 94° |
| 2026-04-21 18:46 | 48.96624 | 2.58731 | 5134 ft | 210 kts | 95° |
| 2026-04-21 18:46 | 48.96456 | 2.60977 | 5778 ft | 217 kts | 95° |
| 2026-04-21 18:47 | 48.96279 | 2.63274 | 6432 ft | 225 kts | 95° |